Caledonia, Texas
Current Conditions -  °F | °C
As of 4:15 PM on Tuesday 25 Nov 2014 (Local Time) from KOCH Reporting Station
Clear Clear  
Wind Chill: 61°   Ceiling: Unl
Heat Index: 61°   Visibility: 10mi
Dew Point: 28°   Wind: 5mph
Humidity: 29%   Direction: 270°W
Pressure: 30.2"   Gusts: NA
Location:  31.8636°N, 94.3909°W
Report Text: KOCH 252215Z AUTO 27004KT 10SM CLR 16/M02 A3020 RMK AO1
Loading
Personal Weather Stations






























Interactive Weather Map New forecast layout! Learn more

10-Day Weather Forecast

Advertisements
Track Severe Weather on mobile